Terminal Aerodrome Forecast
Issued by NWS Sioux Falls, SD

Home | Current Version | Previous Version | Graphics & Text | Print | Product List | Glossary On
Versions: 1 2 3 4 5 6 7 8 9 10 11 12 13 14 15 16
000
FTUS43 KFSD 101700
TAFHON
TAF
KHON 101733Z 1018/1118 17012G21KT P6SM SCT080 BKN200
     FM110100 15008KT P6SM SCT050 BKN150
     FM111000 14004KT P6SM SCT015 BKN100=

USA.gov is the U.S. government's official web portal to all federal, state and local government web resources and services.